createdAt,value
2023-02-19T06:08:39.024Z,8.85
2023-02-19T06:11:05.640Z,8.78
2023-02-19T06:13:34.914Z,8.65
2023-02-19T06:16:05.749Z,8.68
2023-02-19T06:18:32.488Z,8.75
2023-02-19T06:21:03.142Z,8.70
2023-02-19T06:26:26.513Z,8.64
2023-02-19T06:28:53.938Z,8.76
2023-02-19T06:31:21.968Z,8.72
2023-02-19T06:33:50.507Z,8.92
2023-02-19T06:36:19.712Z,8.69
2023-02-19T06:38:46.280Z,8.85
2023-02-19T06:41:13.738Z,8.84
2023-02-19T06:43:40.875Z,8.81
2023-02-19T06:46:08.524Z,8.85
2023-02-19T06:48:35.488Z,8.83
2023-02-19T06:51:03.040Z,8.79
2023-02-19T06:53:29.916Z,8.97
2023-02-19T06:56:19.677Z,8.80
2023-02-19T06:58:46.231Z,8.99
2023-02-19T07:01:13.043Z,9.05
2023-02-19T07:03:39.695Z,8.98
2023-02-19T07:06:06.435Z,9.09
2023-02-19T07:08:32.989Z,9.16
2023-02-19T07:10:59.909Z,9.19
2023-02-19T07:13:27.207Z,9.16
2023-02-19T07:16:07.799Z,9.08
2023-02-19T07:18:35.007Z,9.13
2023-02-19T07:21:06.852Z,9.27
2023-02-19T07:23:33.894Z,9.16
2023-02-19T07:26:00.843Z,9.27
2023-02-19T07:28:27.641Z,9.25
2023-02-19T07:30:54.614Z,9.31
2023-02-19T07:33:21.159Z,9.44
2023-02-19T07:35:48.937Z,9.53
2023-02-19T07:38:17.293Z,9.63
2023-02-19T07:40:57.939Z,9.57
2023-02-19T07:43:27.043Z,9.59
2023-02-19T07:45:53.625Z,9.36
2023-02-19T07:48:20.766Z,9.24
2023-02-19T07:50:54.810Z,9.34
2023-02-19T07:53:22.266Z,9.68
2023-02-19T07:55:48.967Z,9.42
2023-02-19T07:58:16.501Z,9.46
2023-02-19T08:00:43.542Z,9.63
2023-02-19T08:03:10.485Z,9.94
2023-02-19T08:05:38.534Z,9.62
2023-02-19T08:08:09.784Z,9.57
2023-02-19T08:10:55.412Z,9.61
2023-02-19T08:13:22.817Z,9.66
2023-02-19T08:16:18.316Z,9.92
2023-02-19T08:18:49.122Z,9.73
2023-02-19T08:21:18.172Z,9.50
2023-02-19T08:23:46.219Z,9.85
2023-02-19T08:26:13.026Z,10.19
2023-02-19T08:28:39.540Z,10.17
2023-02-19T08:31:07.544Z,10.12
2023-02-19T08:33:34.843Z,10.30
2023-02-19T08:36:05.609Z,10.18
2023-02-19T08:38:35.773Z,10.20
2023-02-19T08:41:13.470Z,10.18
2023-02-19T08:43:41.499Z,9.88
2023-02-19T08:46:10.169Z,10.24
2023-02-19T08:48:37.870Z,9.96
2023-02-19T08:51:08.398Z,10.27
2023-02-19T08:53:36.521Z,10.55
2023-02-19T08:56:12.981Z,9.81
2023-02-19T08:58:40.336Z,10.37
2023-02-19T09:01:12.172Z,10.15
2023-02-19T09:03:39.449Z,10.52
2023-02-19T09:06:06.280Z,10.82
2023-02-19T09:08:33.072Z,10.57
2023-02-19T09:11:01.305Z,10.53
2023-02-19T09:13:28.015Z,10.37
2023-02-19T09:15:56.805Z,10.37
2023-02-19T09:18:24.932Z,10.58
2023-02-19T09:20:51.515Z,11.13
2023-02-19T09:23:18.121Z,11.07
2023-02-19T09:25:44.691Z,10.78
2023-02-19T09:28:11.152Z,10.49
2023-02-19T09:30:37.745Z,10.35
2023-02-19T09:33:05.322Z,10.55
2023-02-19T09:35:31.803Z,10.41
2023-02-19T09:38:00.747Z,11.15
2023-02-19T09:40:27.720Z,11.23
2023-02-19T09:42:54.383Z,12.46
2023-02-19T09:45:26.092Z,11.92
2023-02-19T09:47:58.093Z,11.33
2023-02-19T09:50:34.782Z,10.41
2023-02-19T09:53:04.856Z,10.39
2023-02-19T09:55:38.863Z,10.58
2023-02-19T09:58:30.717Z,10.81
2023-02-19T10:01:00.407Z,10.58
2023-02-19T10:03:41.269Z,10.53
2023-02-19T10:06:25.662Z,10.25
2023-02-19T10:09:18.247Z,10.45
2023-02-19T10:11:45.125Z,10.74
2023-02-19T10:14:28.544Z,10.71
2023-02-19T10:16:59.396Z,10.80
2023-02-19T10:19:26.004Z,10.23
2023-02-19T10:21:52.628Z,10.39
2023-02-19T10:24:27.531Z,10.36
2023-02-19T10:26:54.491Z,10.52
2023-02-19T10:29:22.305Z,10.47
2023-02-19T10:31:48.925Z,10.61
2023-02-19T10:34:22.247Z,10.39
2023-02-19T10:36:53.856Z,10.44
2023-02-19T10:39:23.342Z,10.85
2023-02-19T10:41:51.152Z,10.49
2023-02-19T10:44:45.924Z,10.59
2023-02-19T10:47:22.243Z,10.18
2023-02-19T10:49:51.179Z,10.67
2023-02-19T10:52:30.175Z,10.30
2023-02-19T10:55:13.827Z,10.77
2023-02-19T10:57:40.451Z,10.69
2023-02-19T11:00:16.081Z,10.64
2023-02-19T11:02:44.011Z,10.09
2023-02-19T11:05:16.778Z,9.93
2023-02-19T11:07:53.478Z,10.13
2023-02-19T11:10:34.384Z,10.11
2023-02-19T11:13:03.648Z,9.58
2023-02-19T11:15:33.018Z,9.74
2023-02-19T11:18:05.640Z,9.44
2023-02-19T11:20:32.862Z,9.57
2023-02-19T11:23:28.161Z,9.43
2023-02-19T11:25:57.577Z,9.46
2023-02-19T11:28:31.939Z,9.31
2023-02-19T11:31:19.830Z,9.31
2023-02-19T11:33:57.529Z,8.94
2023-02-19T11:36:37.957Z,9.47
2023-02-19T11:39:19.512Z,9.34
2023-02-19T11:41:55.109Z,9.60
2023-02-19T11:44:36.228Z,9.56
2023-02-19T11:47:40.099Z,9.80
2023-02-19T11:50:20.408Z,9.66
2023-02-19T11:53:01.833Z,9.69
2023-02-19T11:55:56.726Z,9.87
2023-02-19T11:58:41.292Z,9.98
2023-02-19T12:01:22.822Z,9.65
2023-02-19T12:04:20.332Z,9.87
2023-02-19T12:07:18.792Z,9.53
2023-02-19T12:09:51.402Z,9.84
2023-02-19T12:12:26.176Z,10.26
2023-02-19T12:15:04.848Z,11.66
2023-02-19T12:17:49.315Z,11.04
2023-02-19T12:20:32.617Z,10.82
2023-02-19T12:23:17.808Z,10.12
2023-02-19T12:25:57.356Z,9.89
2023-02-19T12:28:44.905Z,9.81
2023-02-19T12:31:49.133Z,10.09
2023-02-19T12:34:15.634Z,10.40
2023-02-19T12:37:11.433Z,10.44
2023-02-19T12:39:56.222Z,10.62
2023-02-19T12:42:55.646Z,10.66
2023-02-19T12:45:33.288Z,11.74
2023-02-19T12:48:11.030Z,13.72
2023-02-19T12:50:40.322Z,13.60
2023-02-19T12:53:28.839Z,13.87
2023-02-19T12:55:57.388Z,13.38
2023-02-19T12:58:35.182Z,12.14
2023-02-19T13:01:02.405Z,11.73
2023-02-19T13:03:32.600Z,12.01
2023-02-19T13:06:07.108Z,12.02
2023-02-19T13:09:05.459Z,11.88
2023-02-19T13:11:42.681Z,11.25
2023-02-19T13:14:21.349Z,11.84
2023-02-19T13:16:52.937Z,11.30
2023-02-19T13:19:19.500Z,11.45
2023-02-19T13:22:10.002Z,11.29
2023-02-19T13:24:41.615Z,11.55
2023-02-19T13:27:08.461Z,11.87
2023-02-19T13:30:06.218Z,14.88
2023-02-19T13:32:41.593Z,14.13
2023-02-19T13:35:23.420Z,15.25
2023-02-19T13:37:51.303Z,14.35
2023-02-19T13:40:34.905Z,13.82
2023-02-19T13:43:05.280Z,12.91
2023-02-19T13:45:39.981Z,12.88
2023-02-19T13:48:36.912Z,12.66
2023-02-19T13:51:12.894Z,12.05
2023-02-19T13:53:45.749Z,11.82
2023-02-19T13:56:31.239Z,12.43
2023-02-19T13:59:36.786Z,13.18
2023-02-19T14:02:03.253Z,12.90
2023-02-19T14:04:52.133Z,13.16
2023-02-19T14:07:18.588Z,13.28
2023-02-19T14:09:46.024Z,13.61
2023-02-19T14:12:15.038Z,11.96
2023-02-19T14:14:46.165Z,11.53
2023-02-19T14:17:43.548Z,11.47
2023-02-19T14:20:10.030Z,11.05
2023-02-19T14:22:45.933Z,10.62
2023-02-19T14:25:30.620Z,10.75
2023-02-19T14:28:04.845Z,10.66
2023-02-19T14:30:33.504Z,10.59
2023-02-19T14:33:10.262Z,10.90
2023-02-19T14:36:02.527Z,11.17
2023-02-19T14:38:35.957Z,11.47
2023-02-19T14:41:03.315Z,11.32
2023-02-19T14:43:31.138Z,11.22
2023-02-19T14:46:00.853Z,10.69
2023-02-19T14:48:39.522Z,10.43
2023-02-19T14:51:16.353Z,10.54
2023-02-19T14:53:45.473Z,10.55
2023-02-19T14:56:25.601Z,11.55
2023-02-19T14:59:22.959Z,11.19
2023-02-19T15:02:01.850Z,11.73
2023-02-19T15:04:34.496Z,13.14
2023-02-19T15:07:05.796Z,12.74
2023-02-19T15:09:41.495Z,12.07
2023-02-19T15:12:13.800Z,12.83
2023-02-19T15:14:40.553Z,13.24
2023-02-19T15:17:07.277Z,12.83
2023-02-19T15:19:37.366Z,11.65
2023-02-19T15:22:04.014Z,11.38
2023-02-19T15:24:30.741Z,11.15
2023-02-19T15:26:57.590Z,11.05
2023-02-19T15:29:27.399Z,10.68
2023-02-19T15:31:56.842Z,10.33
2023-02-19T15:34:29.143Z,10.54
2023-02-19T15:37:00.237Z,10.58
2023-02-19T15:39:31.182Z,10.43
2023-02-19T15:42:01.461Z,10.02
2023-02-19T15:44:33.744Z,10.09
2023-02-19T15:47:07.919Z,9.69
2023-02-19T15:49:45.026Z,9.64
2023-02-19T15:52:21.674Z,9.56
2023-02-19T15:55:22.482Z,9.70
2023-02-19T15:58:04.491Z,9.89
2023-02-19T16:00:49.747Z,9.60
2023-02-19T16:03:20.469Z,9.71
2023-02-19T16:05:59.287Z,9.90
2023-02-19T16:08:34.024Z,9.63
2023-02-19T16:11:04.235Z,9.75
2023-02-19T16:13:33.353Z,9.60
2023-02-19T16:16:08.862Z,9.71
2023-02-19T16:18:35.534Z,9.59
2023-02-19T16:21:08.012Z,9.59
2023-02-19T16:23:34.827Z,9.52
2023-02-19T16:26:02.522Z,9.46
2023-02-19T16:28:34.634Z,9.35
2023-02-19T16:31:04.650Z,9.23
2023-02-19T16:33:37.150Z,9.20
2023-02-19T16:36:33.906Z,9.06
2023-02-19T16:39:03.180Z,8.85
2023-02-19T16:41:29.730Z,8.82
2023-02-19T16:43:56.365Z,8.84
2023-02-19T16:46:23.381Z,8.94
2023-02-19T16:48:51.048Z,8.80
2023-02-19T16:51:24.359Z,8.88
2023-02-19T16:53:50.896Z,8.68
2023-02-19T16:56:21.134Z,8.56
2023-02-19T16:58:47.669Z,8.69
2023-02-19T17:01:14.715Z,8.58
2023-02-19T17:03:42.038Z,8.63
2023-02-19T17:06:08.574Z,8.80
2023-02-19T17:08:40.061Z,8.79
2023-02-19T17:11:11.971Z,8.88
2023-02-19T17:13:38.863Z,9.09
2023-02-19T17:16:05.442Z,9.04
2023-02-19T17:18:32.188Z,8.99
2023-02-19T17:21:09.997Z,8.98
2023-02-19T17:23:36.654Z,9.01
2023-02-19T17:26:03.366Z,8.85
2023-02-19T17:28:30.026Z,8.77
2023-02-19T17:30:57.035Z,8.79
2023-02-19T17:33:23.590Z,8.67
2023-02-19T17:35:50.127Z,8.46
2023-02-19T17:38:16.641Z,8.52
2023-02-19T17:40:43.133Z,8.54
2023-02-19T17:43:09.594Z,8.61
2023-02-19T17:45:36.103Z,8.51
2023-02-19T17:48:02.690Z,8.55
2023-02-19T17:50:31.993Z,8.69
2023-02-19T17:52:59.178Z,8.81
2023-02-19T17:55:26.020Z,8.72
2023-02-19T17:57:53.150Z,8.75
2023-02-19T18:00:23.012Z,8.70
2023-02-19T18:02:49.854Z,8.63
2023-02-19T18:05:35.311Z,8.54
2023-02-19T18:08:20.395Z,8.51
2023-02-19T18:11:07.771Z,8.37
2023-02-19T18:13:54.600Z,8.39
2023-02-19T18:16:49.412Z,8.36
2023-02-19T18:19:36.838Z,8.28
2023-02-19T18:22:23.716Z,8.46
2023-02-19T18:25:26.082Z,7.72
2023-02-19T18:28:13.645Z,8.63
2023-02-19T18:31:00.738Z,8.67
2023-02-19T18:33:47.717Z,8.75
2023-02-19T18:36:34.863Z,8.66
2023-02-19T18:39:21.995Z,8.47
2023-02-19T18:42:08.855Z,8.62
2023-02-19T18:44:56.017Z,8.59
2023-02-19T18:47:45.550Z,8.56
2023-02-19T18:50:34.776Z,8.57
2023-02-19T18:53:21.618Z,8.63
2023-02-19T18:56:09.138Z,8.60
2023-02-19T18:58:56.360Z,8.63
2023-02-19T19:01:43.567Z,8.58
2023-02-19T19:04:30.603Z,8.67
2023-02-19T19:07:18.252Z,8.69
2023-02-19T19:10:05.739Z,8.55
2023-02-19T19:12:54.036Z,8.61
2023-02-19T19:15:41.420Z,8.54
2023-02-19T19:18:31.131Z,8.66
2023-02-19T19:21:18.334Z,8.57
2023-02-19T19:24:05.613Z,8.63
2023-02-19T19:26:52.771Z,8.60
2023-02-19T19:29:39.740Z,8.44
2023-02-19T19:32:26.611Z,8.49
2023-02-19T19:35:13.443Z,8.52
2023-02-19T19:38:00.280Z,8.61
2023-02-19T19:40:47.208Z,8.43
2023-02-19T19:43:34.036Z,8.54
2023-02-19T19:46:20.999Z,8.34
2023-02-19T19:49:07.882Z,8.55
2023-02-19T19:51:57.103Z,8.53
2023-02-19T19:54:45.498Z,8.49
2023-02-19T19:57:32.496Z,8.35
2023-02-19T20:00:19.814Z,8.38
2023-02-19T20:03:07.072Z,8.50
2023-02-19T20:05:54.144Z,8.34
2023-02-19T20:08:41.003Z,8.32
2023-02-19T20:11:28.159Z,8.24
2023-02-19T20:14:16.369Z,8.32
2023-02-19T20:17:03.270Z,8.36
2023-02-19T20:19:50.138Z,8.38
2023-02-19T20:22:37.569Z,8.32
2023-02-19T20:25:24.747Z,8.45
2023-02-19T20:28:11.642Z,8.21
2023-02-19T20:30:58.637Z,8.43
2023-02-19T20:33:45.734Z,8.29
